KBIX

Keesler AFB Airport

Biloxi, Mississippi, USA
TAF KBIX 191800Z 1918/2024 13006KT 9999 FEW045 QNH2992INS BECMG 1920/1921 15006KT 9000 -SHRA SCT050 QNH2990INS TEMPO 1922/2003 VRB15G25KT 4800 -TSRA BKN045CB BECMG 2002/2003 VRB03KT 9999 NSW SKC QNH2995INS BECMG 2015/2016 16006KT 9999 FEW050 QNH2990INS TX37/1920Z TN26/2011Z
Issued Valid From Valid To
Sep-19 @ 18:00 UTC
(5 hours ago)
Sep-19 @ 18:00 UTC
(5 hours ago)
Sep-21 @ 00:00 UTC
(-1 days ago)
Expired Click to View Sep-19 @ 18:00 to Sep-19 @ 20:00
TAF KBIX 191800Z 1918/2024 13006KT 9999 FEW045 QNH2992INS
Wind Visibility Clouds Readings
130° at 6 knots Greater than 6 miles
  • Few at 4,500' AGL
Altimeter 29.91" Hg
Pressure 1013 hPa
Becoming Sep-19 @ 20:00 to Sep-20 @ 02:00
BECMG 1920/1921 15006KT 9000 -SHRA SCT050 QNH2990INS
Wind Visibility Clouds Conditions Readings
150° at 6 knots 5.6 miles
  • Scattered at 5,000' AGL
  • Light Rain
Altimeter 29.91" Hg
Pressure 1013 hPa
Temporary Sep-19 @ 22:00 to Sep-20 @ 03:00
TEMPO 1922/2003 VRB15G25KT 4800 -TSRA BKN045CB
Wind Visibility Clouds Conditions
Variable at 15 knots
 Gusting to 25 knots
3.0 miles
  • Broken at 4,500' AGL
  • Light Thunderstorm
  • Light Rain
Becoming Sep-20 @ 02:00 to Sep-20 @ 15:00
BECMG 2002/2003 VRB03KT 9999 NSW SKC QNH2995INS
Wind Visibility Clouds Conditions Readings
Variable at 3 knots Greater than 6 miles
  • Clear skies
Altimeter 29.94" Hg
Pressure 1014 hPa
Becoming Sep-20 @ 15:00 to Sep-21 @ 00:00
BECMG 2015/2016 16006KT 9999 FEW050 QNH2990INS TX37/1920Z TN26/2011Z
Wind Visibility Clouds Conditions Readings
160° at 6 knots Greater than 6 miles
  • Few at 5,000' AGL
Altimeter 29.91" Hg
Pressure 1013 hPa
TAF KBIX 191800Z 1918/2024 13006KT 9999 FEW045 QNH2992INS BECMG 1920/1921 15006KT 9000 -SHRA SCT050 QNH2990INS TEMPO 1922/2003 VRB15G25KT 4800 -TSRA BKN045CB BECMG 2002/2003 VRB03KT 9999 NSW SKC QNH2995INS BECMG 2015/2016 16006KT 9999 FEW050 QNH2990INS TX37/1920Z TN26/2011Z
Issued Sep-19 @ 18:00 UTC
(5 hours ago)
Valid From Sep-19 @ 18:00 UTC
(5 hours ago)
Valid To Sep-21 @ 00:00 UTC
(-1 days ago)
Sep-19 @ 18:00 - Sep-19 @ 20:00
Wind Visibility
130° at 6 knots Greater than 6 miles
Clouds
  • Few at 4,500' AGL
Becoming Sep-19 @ 20:00 - Sep-20 @ 02:00
Wind Visibility
150° at 6 knots 5.6 miles
Clouds
  • Scattered at 5,000' AGL
Conditions
  • Light Rain
Temporary Sep-19 @ 22:00 - Sep-20 @ 03:00
Wind Visibility
Variable at 15 knots
 Gusting to 25 knots
3.0 miles
Clouds
  • Broken at 4,500' AGL
Conditions
  • Light Thunderstorm
  • Light Rain
Becoming Sep-20 @ 02:00 - Sep-20 @ 15:00
Wind Visibility
Variable at 3 knots Greater than 6 miles
Clouds
  • Clear skies
Conditions
Becoming Sep-20 @ 15:00 - Sep-21 @ 00:00
Wind Visibility
160° at 6 knots Greater than 6 miles
Clouds
  • Few at 5,000' AGL
Conditions